createdAt,value
2019-03-21T00:02:11.534Z,14.53
2019-03-21T00:04:44.111Z,12.33
2019-03-21T00:07:16.088Z,13.55
2019-03-21T00:10:16.599Z,17.42
2019-03-21T00:12:49.095Z,15.93
2019-03-21T00:15:32.062Z,11.48
2019-03-21T00:18:09.757Z,9.98
2019-03-21T00:20:41.858Z,17.70
2019-03-21T00:23:14.045Z,12.40
2019-03-21T00:25:46.107Z,11.90
2019-03-21T00:28:18.329Z,11.80
2019-03-21T00:30:50.298Z,10.70
2019-03-21T00:33:22.658Z,13.48
2019-03-21T00:35:55.091Z,14.15
2019-03-21T00:38:27.745Z,13.35
2019-03-21T00:40:59.694Z,11.63
2019-03-21T00:43:31.691Z,14.53
2019-03-21T00:46:03.834Z,12.95
2019-03-21T00:48:35.959Z,14.28
2019-03-21T00:51:08.107Z,14.55
2019-03-21T00:53:40.748Z,13.95
2019-03-21T00:56:12.587Z,13.00
2019-03-21T00:58:44.976Z,14.28
2019-03-21T01:01:17.144Z,11.97
2019-03-21T01:03:49.785Z,13.80
2019-03-21T01:06:21.983Z,15.40
2019-03-21T01:08:54.053Z,12.43
2019-03-21T01:11:27.156Z,11.05
2019-03-21T01:13:59.074Z,16.62
2019-03-21T01:16:31.144Z,11.80
2019-03-21T01:19:03.306Z,14.58
2019-03-21T01:21:36.491Z,13.32
2019-03-21T01:24:10.059Z,12.07
2019-03-21T01:26:42.000Z,15.60
2019-03-21T01:29:14.287Z,15.30
2019-03-21T01:31:46.441Z,13.72
2019-03-21T01:34:18.447Z,15.72
2019-03-21T01:36:50.501Z,14.35
2019-03-21T01:39:22.375Z,14.68
2019-03-21T01:41:54.487Z,16.00
2019-03-21T01:44:27.491Z,15.10
2019-03-21T01:46:59.617Z,16.90
2019-03-21T01:49:31.823Z,16.07
2019-03-21T01:52:03.705Z,18.50
2019-03-21T01:54:37.113Z,16.35
2019-03-21T01:57:08.986Z,15.72
2019-03-21T01:59:41.391Z,14.65
2019-03-21T02:02:13.474Z,15.25
2019-03-21T02:04:45.556Z,20.57
2019-03-21T02:07:17.537Z,15.70
2019-03-21T02:09:49.544Z,17.23
2019-03-21T02:12:23.645Z,17.17
2019-03-21T02:14:56.036Z,18.20
2019-03-21T02:17:27.980Z,18.35
2019-03-21T02:20:00.337Z,17.80
2019-03-21T02:22:32.704Z,17.90
2019-03-21T02:25:05.183Z,14.47
2019-03-21T02:27:37.533Z,21.77
2019-03-21T02:30:12.118Z,22.50
2019-03-21T02:32:44.186Z,16.55
2019-03-21T02:35:16.097Z,16.73
2019-03-21T02:37:48.944Z,15.08
2019-03-21T02:40:21.997Z,17.37
2019-03-21T02:42:54.219Z,18.65
2019-03-21T02:45:26.243Z,18.95
2019-03-21T02:47:58.202Z,18.85
2019-03-21T02:50:32.373Z,16.75
2019-03-21T02:53:04.566Z,17.37
2019-03-21T02:55:36.586Z,17.80
2019-03-21T02:58:08.711Z,17.02
2019-03-21T03:00:40.567Z,17.48
2019-03-21T03:03:12.645Z,19.10
2019-03-21T03:05:45.002Z,18.92
2019-03-21T03:08:16.960Z,20.52
2019-03-21T03:10:50.709Z,17.60
2019-03-21T03:13:23.008Z,18.25
2019-03-21T03:15:55.186Z,20.25
2019-03-21T03:18:27.321Z,19.30
2019-03-21T03:21:00.802Z,21.10
2019-03-21T03:23:32.996Z,19.37
2019-03-21T03:26:04.960Z,18.82
2019-03-21T03:28:37.118Z,16.45
2019-03-21T03:31:09.468Z,17.67
2019-03-21T03:33:41.681Z,16.77
2019-03-21T03:36:13.878Z,18.45
2019-03-21T03:38:46.118Z,16.10
2019-03-21T03:41:18.104Z,16.15
2019-03-21T03:43:50.182Z,19.32
2019-03-21T03:46:22.727Z,19.48
2019-03-21T03:48:54.563Z,16.60
2019-03-21T03:51:26.719Z,18.42
2019-03-21T03:53:59.900Z,19.30
2019-03-21T03:56:32.134Z,19.73
2019-03-21T03:59:04.690Z,15.35
2019-03-21T04:01:36.962Z,16.75
2019-03-21T04:04:09.176Z,18.90
2019-03-21T04:06:41.356Z,16.42
2019-03-21T04:09:13.159Z,17.05
2019-03-21T04:11:45.189Z,16.57
2019-03-21T04:14:17.525Z,18.67
2019-03-21T04:16:49.759Z,20.97
2019-03-21T04:19:22.010Z,17.77
2019-03-21T04:21:53.979Z,17.80
2019-03-21T04:24:25.832Z,16.07
2019-03-21T04:26:58.072Z,15.75
2019-03-21T04:29:30.287Z,16.45
2019-03-21T04:32:02.486Z,18.85
2019-03-21T04:34:34.472Z,17.60
2019-03-21T04:37:06.638Z,17.65
2019-03-21T04:39:38.896Z,17.37
2019-03-21T04:42:11.312Z,15.90
2019-03-21T04:44:44.491Z,17.98
2019-03-21T04:47:16.719Z,19.42
2019-03-21T04:49:50.074Z,14.23
2019-03-21T04:52:22.462Z,17.32
2019-03-21T04:54:54.738Z,15.53
2019-03-21T04:57:27.080Z,18.00
2019-03-21T05:00:00.049Z,16.80
2019-03-21T05:02:32.206Z,18.05
2019-03-21T05:05:04.201Z,15.15
2019-03-21T05:07:36.420Z,16.00
2019-03-21T05:10:10.075Z,17.37
2019-03-21T05:12:42.283Z,14.38
2019-03-21T05:15:16.782Z,18.52
2019-03-21T05:17:49.633Z,13.22
2019-03-21T05:20:23.985Z,16.32
2019-03-21T05:22:56.260Z,13.08
2019-03-21T05:25:28.533Z,16.67
2019-03-21T05:28:00.444Z,15.08
2019-03-21T05:30:35.803Z,14.78
2019-03-21T05:33:07.621Z,12.98
2019-03-21T05:35:39.862Z,16.45
2019-03-21T05:38:11.953Z,13.35
2019-03-21T05:40:44.098Z,14.50
2019-03-21T05:43:19.091Z,13.62
2019-03-21T05:45:51.259Z,13.00
2019-03-21T05:48:23.583Z,14.13
2019-03-21T05:50:55.699Z,14.53
2019-03-21T05:53:27.896Z,13.28
2019-03-21T05:56:00.293Z,10.88
2019-03-21T05:58:32.652Z,13.40
2019-03-21T06:01:04.931Z,12.93
2019-03-21T06:03:49.998Z,14.53
2019-03-21T06:06:33.506Z,13.85
2019-03-21T06:09:08.465Z,14.03
2019-03-21T06:11:41.804Z,9.45
2019-03-21T06:14:13.859Z,10.72
2019-03-21T06:16:45.981Z,8.40
2019-03-21T06:20:06.943Z,10.72
2019-03-21T06:23:03.759Z,9.48
2019-03-21T06:25:56.937Z,11.38
2019-03-21T06:28:28.853Z,11.93
2019-03-21T06:31:00.958Z,10.25
2019-03-21T06:33:32.841Z,10.88
2019-03-21T06:36:05.143Z,10.32
2019-03-21T06:38:37.042Z,12.10
2019-03-21T06:41:09.326Z,10.28
2019-03-21T06:43:41.306Z,9.50
2019-03-21T06:46:13.495Z,9.15
2019-03-21T06:48:45.877Z,14.45
2019-03-21T06:51:18.844Z,9.83
2019-03-21T06:53:50.903Z,10.20
2019-03-21T06:56:23.162Z,10.30
2019-03-21T06:58:55.336Z,10.08
2019-03-21T07:01:27.378Z,11.10
2019-03-21T07:04:06.929Z,11.10
2019-03-21T07:06:33.152Z,12.10
2019-03-21T07:09:07.055Z,10.30
2019-03-21T07:11:38.959Z,7.47
2019-03-21T07:14:10.927Z,10.05
2019-03-21T07:16:42.773Z,9.93
2019-03-21T07:19:14.603Z,8.55
2019-03-21T07:21:46.510Z,9.75
2019-03-21T07:24:18.651Z,8.88
2019-03-21T07:26:50.833Z,10.72
2019-03-21T07:29:23.084Z,14.13
2019-03-21T07:31:55.153Z,7.40
2019-03-21T07:34:29.224Z,7.92
2019-03-21T07:37:01.180Z,5.72
2019-03-21T07:39:33.174Z,7.67
2019-03-21T07:42:05.422Z,7.62
2019-03-21T07:44:37.575Z,8.73
2019-03-21T07:47:13.019Z,8.20
2019-03-21T07:49:43.227Z,11.43
2019-03-21T07:52:15.248Z,9.13
2019-03-21T07:54:47.446Z,11.03
2019-03-21T07:57:19.298Z,8.13
2019-03-21T07:59:51.419Z,10.90
2019-03-21T08:02:24.539Z,8.65
2019-03-21T08:04:56.631Z,10.72
2019-03-21T08:07:28.910Z,5.78
2019-03-21T08:10:01.140Z,7.22
2019-03-21T08:12:34.311Z,7.72
2019-03-21T08:15:07.687Z,8.58
2019-03-21T08:17:39.800Z,12.65
2019-03-21T08:20:13.195Z,9.58
2019-03-21T08:22:45.619Z,9.98
2019-03-21T08:25:17.679Z,9.43
2019-03-21T08:27:51.803Z,9.35
2019-03-21T08:30:32.841Z,7.65
2019-03-21T08:33:05.600Z,8.65
2019-03-21T08:35:37.931Z,11.38
2019-03-21T08:38:09.986Z,6.70
2019-03-21T08:40:42.732Z,10.48
2019-03-21T08:43:14.993Z,8.10
2019-03-21T08:45:47.110Z,9.13
2019-03-21T08:48:19.453Z,10.13
2019-03-21T08:50:51.380Z,8.10
2019-03-21T08:53:23.409Z,6.87
2019-03-21T08:55:55.581Z,6.87
2019-03-21T08:58:27.525Z,8.15
2019-03-21T09:00:59.831Z,8.00
2019-03-21T09:03:31.970Z,7.40
2019-03-21T09:06:04.167Z,6.08
2019-03-21T09:08:36.213Z,11.15
2019-03-21T09:11:08.920Z,10.68
2019-03-21T09:13:41.107Z,10.32
2019-03-21T09:16:13.184Z,9.88
2019-03-21T09:18:45.294Z,10.95
2019-03-21T09:21:19.907Z,9.75
2019-03-21T09:23:50.936Z,11.93
2019-03-21T09:26:23.271Z,10.78
2019-03-21T09:28:55.394Z,9.15
2019-03-21T09:31:29.049Z,9.75
2019-03-21T09:34:01.046Z,6.42
2019-03-21T09:36:32.975Z,9.18
2019-03-21T09:39:07.845Z,8.98
2019-03-21T09:41:40.611Z,9.35
2019-03-21T09:44:12.694Z,14.47
2019-03-21T09:46:50.722Z,11.43
2019-03-21T09:49:18.613Z,11.43
2019-03-21T09:51:50.614Z,11.55
2019-03-21T09:54:22.868Z,7.60
2019-03-21T09:56:54.831Z,11.12
2019-03-21T09:59:27.319Z,8.60
2019-03-21T10:01:59.614Z,9.10
2019-03-21T10:04:31.799Z,9.90
2019-03-21T10:07:03.983Z,15.35
2019-03-21T10:09:36.107Z,12.53
2019-03-21T10:12:08.361Z,13.70
2019-03-21T10:14:40.367Z,11.05
2019-03-21T10:17:12.515Z,9.20
2019-03-21T10:19:44.760Z,10.08
2019-03-21T10:22:16.743Z,11.78
2019-03-21T10:24:49.056Z,13.95
2019-03-21T10:27:21.195Z,12.30
2019-03-21T10:29:53.276Z,10.18
2019-03-21T10:32:25.313Z,10.93
2019-03-21T10:34:57.586Z,10.40
2019-03-21T10:37:29.766Z,9.53
2019-03-21T10:40:01.960Z,13.00
2019-03-21T10:42:33.809Z,12.93
2019-03-21T10:45:06.384Z,11.35
2019-03-21T10:47:38.748Z,10.60
2019-03-21T10:50:14.562Z,10.65
2019-03-21T10:52:47.116Z,10.90
2019-03-21T10:55:19.179Z,9.65
2019-03-21T10:57:51.801Z,8.73
2019-03-21T11:00:23.898Z,8.93
2019-03-21T11:02:56.071Z,11.25
2019-03-21T11:05:29.380Z,9.40
2019-03-21T11:08:01.541Z,12.15
2019-03-21T11:10:33.544Z,9.63
2019-03-21T11:13:06.490Z,10.15
2019-03-21T11:15:38.499Z,10.50
2019-03-21T11:18:10.691Z,10.08
2019-03-21T11:20:42.805Z,10.00
2019-03-21T11:23:15.038Z,12.98
2019-03-21T11:25:47.056Z,8.55
2019-03-21T11:28:19.473Z,12.20
2019-03-21T11:30:53.203Z,10.65
2019-03-21T11:33:25.741Z,8.30
2019-03-21T11:35:57.926Z,10.98
2019-03-21T11:38:30.046Z,10.80
2019-03-21T11:41:03.592Z,11.93
2019-03-21T11:43:35.840Z,12.88
2019-03-21T11:46:07.936Z,10.58
2019-03-21T11:48:40.225Z,13.00
2019-03-21T11:51:12.078Z,12.80
2019-03-21T11:53:44.003Z,15.05
2019-03-21T11:56:16.377Z,13.90
2019-03-21T11:58:48.557Z,12.98
2019-03-21T12:01:20.779Z,13.85
2019-03-21T12:03:52.754Z,13.70
2019-03-21T12:06:24.911Z,12.45
2019-03-21T12:08:57.214Z,13.98
2019-03-21T12:11:29.065Z,13.25
2019-03-21T12:14:01.314Z,15.45
2019-03-21T12:16:33.678Z,14.05
2019-03-21T12:19:06.009Z,13.90
2019-03-21T12:21:38.130Z,15.00
2019-03-21T12:24:11.169Z,13.15
2019-03-21T12:26:43.498Z,11.50
2019-03-21T12:29:15.791Z,12.55
2019-03-21T12:31:47.791Z,11.03
2019-03-21T12:34:19.760Z,13.53
2019-03-21T12:36:51.883Z,14.05
2019-03-21T12:39:23.955Z,19.02
2019-03-21T12:41:56.113Z,13.55
2019-03-21T12:44:28.109Z,14.68
2019-03-21T12:47:00.218Z,13.90
2019-03-21T12:49:33.562Z,15.75
2019-03-21T12:52:05.966Z,15.78
2019-03-21T12:54:38.320Z,10.60
2019-03-21T12:57:10.386Z,13.00
2019-03-21T12:59:43.758Z,14.35
2019-03-21T13:02:15.646Z,12.88
2019-03-21T13:04:47.610Z,12.45
2019-03-21T13:07:20.454Z,12.50
2019-03-21T13:09:52.557Z,12.58
2019-03-21T13:12:24.736Z,14.15
2019-03-21T13:14:56.986Z,14.33
2019-03-21T13:17:29.222Z,12.85
2019-03-21T13:20:01.288Z,9.93
2019-03-21T13:22:33.488Z,11.60
2019-03-21T13:25:05.603Z,15.48
2019-03-21T13:27:37.667Z,14.55
2019-03-21T13:30:10.852Z,11.97
2019-03-21T13:32:43.085Z,13.20
2019-03-21T13:35:15.338Z,13.05
2019-03-21T13:37:47.991Z,10.72
2019-03-21T13:40:19.946Z,10.90
2019-03-21T13:42:53.204Z,10.23
2019-03-21T13:45:25.240Z,12.95
2019-03-21T13:47:57.448Z,11.45
2019-03-21T13:50:29.806Z,9.85
2019-03-21T13:53:05.195Z,11.60
2019-03-21T13:55:35.516Z,10.95
2019-03-21T13:58:07.464Z,10.72
2019-03-21T14:00:41.066Z,10.20
2019-03-21T14:03:24.373Z,10.70
2019-03-21T14:05:47.100Z,8.30
2019-03-21T14:08:19.064Z,10.82
2019-03-21T14:10:51.302Z,8.03
2019-03-21T14:13:23.239Z,9.75
2019-03-21T14:15:57.802Z,9.75
2019-03-21T14:18:29.059Z,10.90
2019-03-21T14:21:01.062Z,10.48
2019-03-21T14:23:42.736Z,11.12
2019-03-21T14:26:08.341Z,10.98
2019-03-21T14:28:40.391Z,10.70
2019-03-21T14:31:12.642Z,12.28
2019-03-21T14:33:44.746Z,13.65
2019-03-21T14:36:16.907Z,8.58
2019-03-21T14:38:48.991Z,10.18
2019-03-21T14:41:21.148Z,10.25
2019-03-21T14:43:53.242Z,11.73
2019-03-21T14:46:25.279Z,9.70
2019-03-21T14:48:59.744Z,16.02
2019-03-21T14:51:31.972Z,11.38
2019-03-21T14:54:04.061Z,11.38
2019-03-21T14:56:36.120Z,10.43
2019-03-21T14:59:08.087Z,8.98
2019-03-21T15:01:40.877Z,14.70
2019-03-21T15:04:13.048Z,11.93
2019-03-21T15:06:45.144Z,11.25
2019-03-21T15:09:17.108Z,10.40
2019-03-21T15:11:49.348Z,9.60
2019-03-21T15:14:21.583Z,11.65
2019-03-21T15:16:53.881Z,10.13
2019-03-21T15:19:26.342Z,10.55
2019-03-21T15:21:58.523Z,13.43
2019-03-21T15:24:30.468Z,11.05
2019-03-21T15:27:02.510Z,12.35
2019-03-21T15:29:35.506Z,14.63
2019-03-21T15:32:08.347Z,14.53
2019-03-21T15:34:40.318Z,17.32
2019-03-21T15:37:12.556Z,13.43
2019-03-21T15:39:44.796Z,14.03
2019-03-21T15:42:16.877Z,16.12
2019-03-21T15:44:51.687Z,13.83
2019-03-21T15:47:23.804Z,14.43
2019-03-21T15:49:56.017Z,16.97
2019-03-21T15:52:28.503Z,15.25
2019-03-21T15:55:00.579Z,16.82
2019-03-21T15:57:34.554Z,17.48
2019-03-21T16:00:08.495Z,18.65
2019-03-21T16:02:40.583Z,16.60
2019-03-21T16:05:12.712Z,13.58
2019-03-21T16:07:44.667Z,14.63
2019-03-21T16:10:16.816Z,19.05
2019-03-21T16:12:49.244Z,15.08
2019-03-21T16:15:21.971Z,15.35
2019-03-21T16:17:54.539Z,19.15
2019-03-21T16:20:26.597Z,17.90
2019-03-21T16:23:00.335Z,17.07
2019-03-21T16:25:32.755Z,21.65
2019-03-21T16:28:04.840Z,14.85
2019-03-21T16:30:37.200Z,25.02
2019-03-21T16:33:09.569Z,20.23
2019-03-21T16:35:41.497Z,18.60
2019-03-21T16:38:13.468Z,17.48
2019-03-21T16:40:46.278Z,22.17
2019-03-21T16:43:18.458Z,17.12
2019-03-21T16:45:50.461Z,19.52
2019-03-21T16:48:23.205Z,18.98
2019-03-21T16:50:56.598Z,17.67
2019-03-21T16:53:28.870Z,19.48
2019-03-21T16:56:02.600Z,18.00
2019-03-21T16:58:34.767Z,20.60
2019-03-21T17:01:06.762Z,22.00
2019-03-21T17:03:39.223Z,20.80
2019-03-21T17:06:11.519Z,24.25
2019-03-21T17:08:43.490Z,26.35
2019-03-21T17:11:15.538Z,27.73
2019-03-21T17:13:47.593Z,43.63
2019-03-21T17:16:19.491Z,27.00
2019-03-21T17:18:51.532Z,19.85
2019-03-21T17:21:23.565Z,16.42
2019-03-21T17:23:55.746Z,16.37
2019-03-21T17:26:27.892Z,14.58
2019-03-21T17:28:59.934Z,19.15
2019-03-21T17:31:32.306Z,14.50
2019-03-21T17:34:04.713Z,21.10
2019-03-21T17:36:37.741Z,17.98
2019-03-21T17:39:10.471Z,18.98
2019-03-21T17:41:43.405Z,18.70
2019-03-21T17:44:15.665Z,22.42
2019-03-21T17:46:47.752Z,17.35
2019-03-21T17:49:19.606Z,17.82
2019-03-21T17:51:51.495Z,16.17
2019-03-21T17:54:23.636Z,18.07
2019-03-21T17:56:55.965Z,20.43
2019-03-21T17:59:28.370Z,15.50
2019-03-21T18:02:00.465Z,18.37
2019-03-21T18:04:35.667Z,15.13
2019-03-21T18:07:06.629Z,19.20
2019-03-21T18:09:39.003Z,20.70
2019-03-21T18:12:11.336Z,17.85
2019-03-21T18:14:43.725Z,16.10
2019-03-21T18:17:15.878Z,15.70
2019-03-21T18:19:48.105Z,19.10
2019-03-21T18:22:20.143Z,20.68
2019-03-21T18:24:53.999Z,15.32
2019-03-21T18:27:26.447Z,17.85
2019-03-21T18:29:58.857Z,22.00
2019-03-21T18:32:30.979Z,21.45
2019-03-21T18:35:03.378Z,26.33
2019-03-21T18:37:35.685Z,26.33
2019-03-21T18:40:10.092Z,17.25
2019-03-21T18:42:42.437Z,15.58
2019-03-21T18:45:14.945Z,15.40
2019-03-21T18:47:47.853Z,16.65
2019-03-21T18:50:19.925Z,19.87
2019-03-21T18:52:52.571Z,21.80
2019-03-21T18:55:24.785Z,43.58
2019-03-21T18:57:56.915Z,25.10
2019-03-21T19:00:29.204Z,39.35
2019-03-21T19:03:01.721Z,27.15
2019-03-21T19:05:33.919Z,23.07
2019-03-21T19:08:07.072Z,18.10
2019-03-21T19:10:39.396Z,16.40
2019-03-21T19:13:11.672Z,20.02
2019-03-21T19:15:43.496Z,19.85
2019-03-21T19:18:15.844Z,17.60
2019-03-21T19:20:47.931Z,17.05
2019-03-21T19:23:20.454Z,19.35
2019-03-21T19:25:52.588Z,21.55
2019-03-21T19:28:24.739Z,23.50
2019-03-21T19:30:56.828Z,17.00
2019-03-21T19:33:28.960Z,19.40
2019-03-21T19:36:01.203Z,21.10
2019-03-21T19:38:33.808Z,25.62
2019-03-21T19:41:06.348Z,20.15
2019-03-21T19:43:38.508Z,18.17
2019-03-21T19:46:10.608Z,23.10
2019-03-21T19:48:50.213Z,19.73
2019-03-21T19:51:16.672Z,15.65
2019-03-21T19:53:48.886Z,20.27
2019-03-21T19:56:21.044Z,18.40
2019-03-21T19:58:53.239Z,21.85
2019-03-21T20:01:25.347Z,19.98
2019-03-21T20:03:57.335Z,19.55
2019-03-21T20:06:33.938Z,21.52
2019-03-21T20:09:07.676Z,22.42
2019-03-21T20:11:41.636Z,17.73
2019-03-21T20:14:14.003Z,22.62
2019-03-21T20:16:46.291Z,20.70
2019-03-21T20:19:19.240Z,20.08
2019-03-21T20:21:51.379Z,21.97
2019-03-21T20:24:23.552Z,25.00
2019-03-21T20:26:55.923Z,26.95
2019-03-21T20:29:28.997Z,20.95
2019-03-21T20:32:01.156Z,22.42
2019-03-21T20:34:33.849Z,24.32
2019-03-21T20:37:05.939Z,21.35
2019-03-21T20:39:38.100Z,21.52
2019-03-21T20:42:10.199Z,26.00
2019-03-21T20:44:42.244Z,21.20
2019-03-21T20:47:14.335Z,21.20
2019-03-21T20:49:46.282Z,17.65
2019-03-21T20:52:18.368Z,21.75
2019-03-21T20:54:50.797Z,21.93
2019-03-21T20:57:23.329Z,19.15
2019-03-21T20:59:55.523Z,20.27
2019-03-21T21:02:27.677Z,23.52
2019-03-21T21:04:59.996Z,19.65
2019-03-21T21:07:32.199Z,21.90
2019-03-21T21:10:04.790Z,19.27
2019-03-21T21:12:36.991Z,20.00
2019-03-21T21:15:09.348Z,19.30
2019-03-21T21:17:43.307Z,20.62
2019-03-21T21:20:16.928Z,20.82
2019-03-21T21:22:48.991Z,23.02
2019-03-21T21:25:20.986Z,30.35
2019-03-21T21:27:54.584Z,18.60
2019-03-21T21:30:26.755Z,23.02
2019-03-21T21:32:59.252Z,19.37
2019-03-21T21:35:31.351Z,20.97
2019-03-21T21:38:05.391Z,17.02
2019-03-21T21:40:37.455Z,20.15
2019-03-21T21:43:09.723Z,27.62
2019-03-21T21:45:41.828Z,21.77
2019-03-21T21:48:13.712Z,17.07
2019-03-21T21:50:46.753Z,20.70
2019-03-21T21:53:18.957Z,18.65
2019-03-21T21:55:51.090Z,22.48
2019-03-21T21:58:23.207Z,23.65
2019-03-21T22:00:55.311Z,21.62
2019-03-21T22:03:27.609Z,21.10
2019-03-21T22:06:00.251Z,22.32
2019-03-21T22:08:32.428Z,23.18
2019-03-21T22:11:05.817Z,24.05
2019-03-21T22:13:38.412Z,20.75
2019-03-21T22:16:10.735Z,19.02
2019-03-21T22:18:43.099Z,21.48
2019-03-21T22:21:15.559Z,20.12
2019-03-21T22:23:48.057Z,23.32
2019-03-21T22:26:29.180Z,23.22
2019-03-21T22:28:53.991Z,25.32
2019-03-21T22:31:25.929Z,23.90
2019-03-21T22:33:58.298Z,23.73
2019-03-21T22:36:30.796Z,21.30
2019-03-21T22:39:03.150Z,20.68
2019-03-21T22:41:37.014Z,22.27
2019-03-21T22:44:09.705Z,21.15
2019-03-21T22:46:42.466Z,23.02
2019-03-21T22:49:14.529Z,21.90
2019-03-21T22:51:46.533Z,23.05
2019-03-21T22:54:18.516Z,22.55
2019-03-21T22:56:50.763Z,22.32
2019-03-21T22:59:23.118Z,23.90
2019-03-21T23:01:55.282Z,27.13
2019-03-21T23:04:27.704Z,26.27
2019-03-21T23:06:59.661Z,22.42
2019-03-21T23:09:32.254Z,24.77
2019-03-21T23:12:04.722Z,22.07
2019-03-21T23:14:36.789Z,23.10
2019-03-21T23:17:08.827Z,21.05
2019-03-21T23:19:40.820Z,22.17
2019-03-21T23:22:12.912Z,27.35
2019-03-21T23:24:44.794Z,25.02
2019-03-21T23:27:16.943Z,21.73
2019-03-21T23:29:49.339Z,24.02
2019-03-21T23:32:21.437Z,23.47
2019-03-21T23:34:53.584Z,25.37
2019-03-21T23:37:26.253Z,26.95
2019-03-21T23:39:58.602Z,28.77
2019-03-21T23:42:30.956Z,25.37
2019-03-21T23:45:03.175Z,21.12
2019-03-21T23:47:35.373Z,20.95
2019-03-21T23:50:08.271Z,21.23
2019-03-21T23:52:40.525Z,21.50
2019-03-21T23:55:12.939Z,23.15
2019-03-21T23:57:45.733Z,21.85
